Time;durP1;ratioP1;P1;durP2;ratioP2;P2;SDS_P1;SDS_P2;PMS_P1;PMS_P2;Temp;Humidity;BMP_temperature;BMP_pressure;BME280_temperature;BME280_humidity;BME280_pressure;Samples;Min_cycle;Max_cycle;Signal;HPM_P1;HPM_P2
2022/01/26 00:00:05;;;;;;;18.10;8.52;;;3.70;1.00;;;;;;5058676;28;20274;-75
2022/01/26 00:08:01;;;;;;;27.42;10.35;;;3.60;1.00;;;;;;5065531;28;20190;-74
2022/01/26 00:10:27;;;;;;;24.63;9.30;;;3.70;1.00;;;;;;5066039;28;20176;-75
2022/01/26 00:12:53;;;;;;;25.93;9.50;;;3.60;1.00;;;;;;5052695;28;20685;-74
2022/01/26 00:15:27;;;;;;;16.80;8.03;;;3.60;1.00;;;;;;5053677;28;20422;-74
2022/01/26 00:17:56;;;;;;;21.05;8.55;;;3.70;1.00;;;;;;5067397;28;20439;-74
2022/01/26 00:20:31;;;;;;;30.73;9.15;;;3.70;1.00;;;;;;5065088;28;20670;-74
2022/01/26 00:23:34;;;;;;;23.77;9.43;;;3.70;1.00;;;;;;5069238;28;20523;-75
2022/01/26 00:26:14;;;;;;;26.23;9.40;;;3.60;1.00;;;;;;5053244;28;20270;-75
2022/01/26 00:32:00;;;;;;;18.45;8.55;;;3.50;1.00;;;;;;5060035;28;20183;-75
2022/01/26 00:39:33;;;;;;;22.98;8.05;;;3.50;1.00;;;;;;5069779;28;20228;-74
2022/01/26 00:41:59;;;;;;;16.80;7.47;;;3.50;1.00;;;;;;5069231;28;20245;-74
2022/01/26 00:44:33;;;;;;;19.58;8.18;;;3.50;1.00;;;;;;5070065;28;20195;-74
2022/01/26 00:47:01;;;;;;;20.52;8.38;;;3.50;1.00;;;;;;5069894;28;20208;-74
2022/01/26 00:49:27;;;;;;;19.90;8.60;;;3.50;1.00;;;;;;5056835;28;20232;-74
2022/01/26 00:51:55;;;;;;;31.35;9.65;;;3.50;1.00;;;;;;5057071;28;20163;-74
2022/01/26 00:54:21;;;;;;;28.27;8.80;;;3.50;1.00;;;;;;5068216;28;20673;-74
2022/01/26 00:56:49;;;;;;;23.47;8.87;;;3.50;1.00;;;;;;5070406;28;20187;-74
2022/01/26 00:59:15;;;;;;;22.05;8.57;;;3.50;1.00;;;;;;5066210;28;20436;-74
2022/01/26 01:01:41;;;;;;;24.60;9.07;;;3.60;1.00;;;;;;5071716;28;20199;-74
2022/01/26 01:04:13;;;;;;;26.33;8.87;;;3.60;1.00;;;;;;5072503;28;20171;-75
2022/01/26 01:06:47;;;;;;;19.63;7.82;;;3.60;1.00;;;;;;5056224;28;20190;-74
2022/01/26 01:09:13;;;;;;;15.27;7.57;;;3.50;1.00;;;;;;5055786;28;20156;-74
2022/01/26 01:11:39;;;;;;;15.25;7.43;;;3.50;1.00;;;;;;5072155;28;20633;-74
2022/01/26 01:14:05;;;;;;;29.80;7.77;;;3.60;1.00;;;;;;5064658;28;20219;-74
2022/01/26 01:16:30;;;;;;;12.37;7.33;;;3.60;1.00;;;;;;5058384;28;20186;-74
2022/01/26 01:19:16;;;;;;;21.80;8.10;;;3.60;1.00;;;;;;5066049;28;20203;-74
2022/01/26 01:27:39;;;;;;;15.02;7.25;;;3.40;1.00;;;;;;5055623;28;20237;-74
2022/01/26 01:30:41;;;;;;;23.00;7.00;;;3.50;1.00;;;;;;5044037;28;20171;-74
2022/01/26 01:33:09;;;;;;;20.40;7.13;;;3.40;1.00;;;;;;5060821;28;20663;-74
2022/01/26 01:35:40;;;;;;;21.92;6.80;;;3.40;1.00;;;;;;5062755;28;20168;-74
2022/01/26 01:38:12;;;;;;;21.25;7.38;;;3.30;1.00;;;;;;5062098;28;20183;-74
2022/01/26 01:40:41;;;;;;;18.05;7.53;;;3.40;1.00;;;;;;5063453;28;20183;-74
2022/01/26 01:43:07;;;;;;;18.73;7.93;;;3.40;1.00;;;;;;5066729;28;20806;-74
2022/01/26 01:45:38;;;;;;;21.83;7.90;;;3.40;1.00;;;;;;5060569;28;20179;-74
2022/01/26 01:48:18;;;;;;;18.00;7.18;;;3.40;1.00;;;;;;5075054;28;20266;-74
2022/01/26 01:50:44;;;;;;;25.35;8.05;;;3.30;1.00;;;;;;5057983;28;20187;-74
2022/01/26 01:53:12;;;;;;;19.75;8.30;;;3.40;1.00;;;;;;5065071;28;20738;-74
2022/01/26 01:55:40;;;;;;;18.13;7.45;;;3.40;1.00;;;;;;5057964;28;20553;-74
2022/01/26 01:58:07;;;;;;;23.23;8.23;;;3.40;1.00;;;;;;5065287;28;20532;-74
2022/01/26 02:00:33;;;;;;;16.15;7.40;;;3.40;1.00;;;;;;5061818;28;20185;-74
2022/01/26 02:03:01;;;;;;;19.83;7.43;;;3.40;1.00;;;;;;5074629;28;20611;-74
2022/01/26 02:05:27;;;;;;;23.75;8.32;;;3.40;1.00;;;;;;5056308;28;20175;-74
2022/01/26 02:08:01;;;;;;;17.30;7.30;;;3.40;1.00;;;;;;5054781;28;20175;-75
2022/01/26 02:10:29;;;;;;;26.15;8.05;;;3.40;1.00;;;;;;5054638;28;20401;-75
2022/01/26 02:12:56;;;;;;;26.23;9.43;;;3.30;1.00;;;;;;5066683;28;20248;-75
2022/01/26 02:15:37;;;;;;;15.23;6.80;;;3.30;1.00;;;;;;5061567;28;20262;-75
2022/01/26 02:52:11;;;;;;;23.15;6.47;;;3.30;1.00;;;;;;5065027;28;20225;-74
2022/01/26 02:59:58;;;;;;;12.90;6.87;;;3.20;1.00;;;;;;5067516;28;20183;-74
2022/01/26 03:02:40;;;;;;;21.23;7.40;;;3.20;1.00;;;;;;5033861;28;20922;-74
2022/01/26 03:05:11;;;;;;;31.73;9.85;;;3.20;1.00;;;;;;5038043;28;20298;-74
2022/01/26 03:07:55;;;;;;;19.63;8.80;;;3.20;1.00;;;;;;5053091;28;20552;-74
2022/01/26 03:10:34;;;;;;;16.77;7.68;;;3.20;1.00;;;;;;5067218;28;20179;-75
2022/01/26 03:13:09;;;;;;;18.88;7.57;;;3.00;1.00;;;;;;5053824;28;20218;-75
2022/01/26 03:15:43;;;;;;;17.70;7.63;;;3.00;1.00;;;;;;5065168;28;20164;-75
2022/01/26 03:20:36;;;;;;;10.63;6.03;;;3.10;1.00;;;;;;5064713;28;20184;-75
2022/01/26 03:31:57;;;;;;;18.98;6.43;;;3.00;1.00;;;;;;5056061;28;20226;-75
2022/01/26 03:34:15;;;;;;;12.77;5.95;;;3.00;1.00;;;;;;5055095;28;20638;-74
2022/01/26 03:36:54;;;;;;;12.20;6.75;;;3.00;1.00;;;;;;5064738;28;20179;-75
2022/01/26 03:39:22;;;;;;;15.82;7.57;;;3.00;1.00;;;;;;5060731;28;20174;-75
2022/01/26 03:41:56;;;;;;;10.25;6.30;;;3.00;1.00;;;;;;5062480;28;20218;-75
2022/01/26 03:44:22;;;;;;;16.25;7.90;;;2.90;1.00;;;;;;5053165;28;20172;-75
2022/01/26 03:46:49;;;;;;;17.90;6.97;;;2.90;1.00;;;;;;5053732;28;20164;-75
2022/01/26 03:49:19;;;;;;;16.63;6.97;;;3.00;1.00;;;;;;5066686;28;20210;-75
2022/01/26 03:51:49;;;;;;;23.40;7.50;;;3.00;1.00;;;;;;5065948;28;20187;-75
2022/01/26 03:54:25;;;;;;;11.35;6.05;;;3.00;1.00;;;;;;5052352;28;20532;-74
2022/01/26 03:56:50;;;;;;;13.35;6.68;;;3.00;1.00;;;;;;5071821;28;20242;-74
2022/01/26 03:59:19;;;;;;;12.07;6.50;;;3.00;1.00;;;;;;5053176;28;20714;-74
2022/01/26 04:01:44;;;;;;;12.23;5.90;;;3.00;1.00;;;;;;5067634;28;20180;-74
2022/01/26 04:04:10;;;;;;;10.13;6.03;;;3.00;1.00;;;;;;5062292;28;20184;-74
2022/01/26 04:06:36;;;;;;;13.20;6.63;;;3.00;1.00;;;;;;5053027;28;20666;-74
2022/01/26 04:09:06;;;;;;;15.27;6.17;;;3.00;1.00;;;;;;5055232;28;20195;-74
2022/01/26 04:14:05;;;;;;;15.30;6.63;;;3.00;1.00;;;;;;5068840;28;20200;-73
2022/01/26 04:16:31;;;;;;;20.20;7.65;;;3.00;1.00;;;;;;5056780;28;20207;-74
2022/01/26 04:19:01;;;;;;;13.40;7.50;;;2.90;1.00;;;;;;5065691;28;20186;-74
2022/01/26 04:24:08;;;;;;;16.85;7.20;;;2.90;1.00;;;;;;5057453;28;20164;-75
2022/01/26 04:26:45;;;;;;;15.75;8.00;;;2.90;1.00;;;;;;5061459;28;20175;-75
2022/01/26 04:29:20;;;;;;;13.35;6.50;;;2.90;1.00;;;;;;5063596;28;20168;-75
2022/01/26 04:31:46;;;;;;;11.75;4.85;;;2.90;1.00;;;;;;5051272;28;20169;-75
2022/01/26 04:34:19;;;;;;;10.93;6.00;;;2.90;1.00;;;;;;5063176;28;20199;-75
2022/01/26 04:39:53;;;;;;;15.75;6.65;;;3.00;1.00;;;;;;4981810;28;20197;-75
2022/01/26 04:42:28;;;;;;;18.10;5.85;;;3.00;1.00;;;;;;4994993;28;20166;-75
2022/01/26 04:45:02;;;;;;;22.77;7.05;;;3.00;1.00;;;;;;4986346;28;20213;-75
2022/01/26 04:47:28;;;;;;;14.00;6.63;;;2.90;1.00;;;;;;4978378;28;20190;-74
2022/01/26 04:50:10;;;;;;;18.50;6.60;;;3.00;1.00;;;;;;4985396;28;20194;-75
2022/01/26 04:52:36;;;;;;;16.52;7.50;;;3.00;1.00;;;;;;4988397;28;20221;-75
2022/01/26 04:55:03;;;;;;;12.77;6.57;;;3.00;1.00;;;;;;4987249;28;20202;-74
2022/01/26 04:57:28;;;;;;;18.35;8.45;;;2.90;1.00;;;;;;4973494;28;20193;-75
2022/01/26 04:59:54;;;;;;;10.13;5.93;;;2.90;1.00;;;;;;4992369;28;20178;-74
2022/01/26 05:02:19;;;;;;;16.70;6.60;;;2.90;1.00;;;;;;4969427;28;20711;-74
2022/01/26 05:04:49;;;;;;;11.03;6.57;;;2.90;1.00;;;;;;4994479;28;20185;-74
2022/01/26 05:07:15;;;;;;;12.55;6.20;;;2.90;1.00;;;;;;4974264;28;20193;-74
2022/01/26 05:09:41;;;;;;;16.97;7.03;;;2.90;1.00;;;;;;4986914;28;20545;-74
2022/01/26 05:12:07;;;;;;;16.55;7.18;;;2.90;1.00;;;;;;4981550;28;20649;-74
2022/01/26 05:14:50;;;;;;;21.42;6.47;;;2.80;1.00;;;;;;4982256;28;20210;-74
2022/01/26 05:17:19;;;;;;;17.73;6.20;;;2.80;1.00;;;;;;5050294;28;20210;-74
2022/01/26 05:19:45;;;;;;;10.27;6.07;;;2.80;1.00;;;;;;5056841;28;20255;-74
2022/01/26 05:22:11;;;;;;;13.50;6.47;;;2.80;1.00;;;;;;5068582;28;20267;-74
2022/01/26 05:24:37;;;;;;;8.05;4.80;;;2.80;1.00;;;;;;5057703;28;20209;-74
2022/01/26 05:27:07;;;;;;;15.65;7.13;;;2.70;1.00;;;;;;5063353;28;20262;-73
2022/01/26 05:29:33;;;;;;;19.33;7.78;;;2.70;1.00;;;;;;5060409;28;20199;-74
2022/01/26 05:31:58;;;;;;;19.20;6.97;;;2.70;1.00;;;;;;5063509;28;20217;-76
2022/01/26 05:34:24;;;;;;;11.30;6.77;;;2.70;1.00;;;;;;5075550;28;20203;-74
2022/01/26 05:36:50;;;;;;;11.63;5.50;;;2.70;1.00;;;;;;5072088;28;20681;-74
2022/01/26 05:39:15;;;;;;;18.77;6.63;;;2.70;1.00;;;;;;5067952;28;20654;-75
2022/01/26 05:41:49;;;;;;;9.10;5.07;;;2.70;1.00;;;;;;5063242;28;20186;-75
2022/01/26 05:44:15;;;;;;;14.40;5.30;;;2.80;1.00;;;;;;5062069;28;20175;-75
2022/01/26 05:46:48;;;;;;;19.80;7.30;;;2.80;1.00;;;;;;5066335;28;20190;-75
2022/01/26 05:49:19;;;;;;;17.33;8.00;;;2.80;1.00;;;;;;5055243;28;20638;-75
2022/01/26 05:51:55;;;;;;;16.60;8.05;;;2.80;1.00;;;;;;5055093;28;20708;-75
2022/01/26 05:54:21;;;;;;;14.00;6.97;;;2.80;1.00;;;;;;5067749;28;20195;-75
2022/01/26 05:56:48;;;;;;;10.90;6.97;;;2.80;1.00;;;;;;5066428;28;20653;-75
2022/01/26 05:59:19;;;;;;;16.52;5.90;;;2.80;1.00;;;;;;5069849;28;20183;-75
2022/01/26 06:01:46;;;;;;;10.55;5.95;;;2.80;1.00;;;;;;5054669;28;20389;-75
2022/01/26 06:04:12;;;;;;;16.65;6.70;;;2.90;1.00;;;;;;5059832;28;20187;-75
2022/01/26 06:06:37;;;;;;;20.60;7.00;;;2.90;1.00;;;;;;5056337;28;20254;-75
2022/01/26 06:09:07;;;;;;;10.93;5.37;;;2.90;1.00;;;;;;5066950;28;20184;-75
2022/01/26 06:11:32;;;;;;;9.93;5.32;;;2.90;1.00;;;;;;5054504;28;20184;-74
2022/01/26 06:13:58;;;;;;;11.20;7.07;;;2.90;1.00;;;;;;5062117;28;20210;-74
2022/01/26 06:16:24;;;;;;;10.67;6.43;;;2.90;1.00;;;;;;5072348;28;20195;-73
2022/01/26 06:18:49;;;;;;;12.63;7.03;;;2.90;1.00;;;;;;5073560;28;20676;-74
2022/01/26 06:21:15;;;;;;;18.67;7.47;;;2.90;1.00;;;;;;5073568;28;20501;-74
2022/01/26 06:23:42;;;;;;;16.77;6.60;;;2.90;1.00;;;;;;5067703;28;20215;-74
2022/01/26 06:26:08;;;;;;;12.35;7.07;;;2.90;1.00;;;;;;5063587;28;20184;-73
2022/01/26 06:28:34;;;;;;;13.43;7.35;;;2.90;1.00;;;;;;5050306;28;20271;-74
2022/01/26 06:31:10;;;;;;;7.55;5.05;;;2.90;1.00;;;;;;5067154;28;20183;-74
2022/01/26 06:33:41;;;;;;;14.70;7.95;;;2.90;1.00;;;;;;5058066;28;20203;-74
2022/01/26 06:36:12;;;;;;;14.23;6.85;;;2.90;1.00;;;;;;5056694;28;20274;-73
2022/01/26 06:38:42;;;;;;;14.38;7.30;;;2.90;1.00;;;;;;5065025;28;20186;-74
2022/01/26 06:41:09;;;;;;;12.32;6.13;;;2.80;1.00;;;;;;5056351;28;20160;-75
2022/01/26 06:43:43;;;;;;;12.73;5.00;;;2.80;1.00;;;;;;5066077;28;20207;-75
2022/01/26 06:46:09;;;;;;;9.00;5.63;;;2.90;1.00;;;;;;5054616;28;20175;-75
2022/01/26 06:48:56;;;;;;;16.40;6.87;;;2.90;1.00;;;;;;5067179;28;20182;-74
2022/01/26 06:51:22;;;;;;;12.70;5.95;;;2.90;1.00;;;;;;5052668;28;20255;-75
2022/01/26 06:53:48;;;;;;;14.53;7.10;;;2.80;1.00;;;;;;5073723;28;20281;-74
2022/01/26 06:56:19;;;;;;;11.70;6.50;;;2.80;1.00;;;;;;5072757;28;20162;-75
2022/01/26 06:58:44;;;;;;;13.25;6.70;;;2.90;1.00;;;;;;5067302;28;20175;-74
2022/01/26 07:01:10;;;;;;;10.07;6.37;;;2.90;1.00;;;;;;5057225;28;20186;-75
2022/01/26 07:03:36;;;;;;;14.20;7.30;;;2.80;1.00;;;;;;5046859;28;20192;-75
2022/01/26 07:06:02;;;;;;;10.40;5.50;;;2.80;1.00;;;;;;5051115;28;20222;-75
2022/01/26 07:08:32;;;;;;;13.17;6.07;;;2.80;1.00;;;;;;5057084;28;20434;-75
2022/01/26 07:10:59;;;;;;;15.40;7.50;;;2.90;1.00;;;;;;5049502;28;20688;-75
2022/01/26 07:13:26;;;;;;;12.77;7.53;;;2.90;1.00;;;;;;5064703;28;20203;-75
2022/01/26 07:21:26;;;;;;;14.05;7.50;;;3.00;1.00;;;;;;5062255;28;20225;-75
2022/01/26 07:23:56;;;;;;;14.73;6.60;;;3.00;1.00;;;;;;5059713;28;20203;-75
2022/01/26 07:26:27;;;;;;;11.88;6.28;;;3.00;1.00;;;;;;5044908;28;20211;-73
2022/01/26 07:29:06;;;;;;;30.17;7.68;;;3.00;1.00;;;;;;5057994;28;20618;-73
2022/01/26 07:31:50;;;;;;;13.48;6.20;;;3.10;1.00;;;;;;5062124;28;20236;-73
2022/01/26 07:34:19;;;;;;;15.73;6.22;;;3.00;1.00;;;;;;5064703;28;20209;-73
2022/01/26 07:36:47;;;;;;;18.35;6.90;;;3.00;1.00;;;;;;5055434;28;20164;-74
2022/01/26 07:39:17;;;;;;;10.65;6.90;;;3.00;1.00;;;;;;5063094;28;20213;-74
2022/01/26 07:41:44;;;;;;;10.18;6.32;;;3.10;1.00;;;;;;5058136;28;20167;-76
2022/01/26 07:44:09;;;;;;;11.20;5.60;;;3.10;1.00;;;;;;5072301;28;20291;-76
2022/01/26 07:46:35;;;;;;;10.33;5.53;;;3.20;1.00;;;;;;5077030;28;20236;-75
2022/01/26 07:49:01;;;;;;;11.23;6.00;;;3.20;1.00;;;;;;5057315;28;20509;-75
2022/01/26 07:51:37;;;;;;;8.50;5.35;;;3.20;1.00;;;;;;5056597;28;20172;-75
2022/01/26 07:54:07;;;;;;;13.32;7.43;;;3.10;1.00;;;;;;5052211;28;20195;-75
2022/01/26 07:56:32;;;;;;;15.35;8.05;;;3.20;1.00;;;;;;5064040;28;20174;-74
2022/01/26 07:59:01;;;;;;;17.63;6.17;;;3.20;1.00;;;;;;5067024;28;20257;-74
2022/01/26 08:01:30;;;;;;;12.98;7.55;;;3.10;1.00;;;;;;5066995;28;20190;-73
2022/01/26 08:03:55;;;;;;;11.00;6.95;;;3.10;1.00;;;;;;5056013;28;20734;-73
2022/01/26 08:06:25;;;;;;;12.80;7.30;;;3.10;1.00;;;;;;5055895;28;20290;-73
2022/01/26 08:08:50;;;;;;;14.43;6.50;;;3.10;1.00;;;;;;5070435;28;20198;-73
2022/01/26 08:11:19;;;;;;;13.43;6.20;;;3.10;1.00;;;;;;5061669;28;20183;-74
2022/01/26 08:13:55;;;;;;;11.43;5.20;;;3.10;1.00;;;;;;5054840;28;20250;-73
2022/01/26 08:16:20;;;;;;;14.43;5.90;;;3.10;1.00;;;;;;5057382;28;20168;-74
2022/01/26 08:18:46;;;;;;;13.93;6.47;;;3.10;1.00;;;;;;5057370;28;20303;-76
2022/01/26 08:21:12;;;;;;;12.63;6.47;;;3.10;1.00;;;;;;5062971;28;20195;-75
2022/01/26 08:23:42;;;;;;;7.40;3.17;;;3.50;1.00;;;;;;5064800;28;20205;-77
2022/01/26 08:26:08;;;;;;;5.82;3.65;;;4.50;1.00;;;;;;5064418;28;20708;-75
2022/01/26 08:28:41;;;;;;;19.40;6.97;;;4.90;1.00;;;;;;5056024;28;20221;-76
2022/01/26 08:31:07;;;;;;;24.70;9.47;;;5.30;1.00;;;;;;5061419;28;20167;-75
2022/01/26 08:33:37;;;;;;;23.50;9.60;;;5.80;1.00;;;;;;5071475;28;20476;-76
2022/01/26 08:36:03;;;;;;;104.53;41.47;;;5.90;1.00;;;;;;5056493;28;20421;-76
2022/01/26 08:38:31;;;;;;;42.97;16.30;;;6.30;1.00;;;;;;5056718;28;20390;-75
2022/01/26 08:41:01;;;;;;;27.60;12.67;;;6.50;1.00;;;;;;5065001;28;20511;-75
2022/01/26 08:43:31;;;;;;;30.07;11.67;;;6.60;1.00;;;;;;5056176;28;20433;-76
2022/01/26 08:45:56;;;;;;;27.30;12.63;;;6.70;1.00;;;;;;5070183;28;20889;-75
2022/01/26 08:48:49;;;;;;;37.33;12.07;;;7.10;1.00;;;;;;5056003;28;20424;-75
2022/01/26 08:51:17;;;;;;;15.20;7.00;;;7.10;1.00;;;;;;5053645;28;20171;-75
2022/01/26 08:53:42;;;;;;;17.13;7.80;;;7.20;1.00;;;;;;5058427;28;20454;-75
2022/01/26 08:56:19;;;;;;;14.03;7.90;;;7.40;1.00;;;;;;5075140;28;20458;-75
2022/01/26 08:58:49;;;;;;;16.60;7.07;;;7.50;1.00;;;;;;5062209;28;20236;-75
2022/01/26 09:01:43;;;;;;;13.47;6.87;;;7.60;1.00;;;;;;5062531;28;20953;-75
2022/01/26 09:04:08;;;;;;;12.47;6.30;;;7.70;1.00;;;;;;5059174;28;20444;-75
2022/01/26 09:06:39;;;;;;;10.60;5.90;;;7.90;1.00;;;;;;5062389;28;20431;-76
2022/01/26 09:09:13;;;;;;;13.77;6.37;;;8.10;1.00;;;;;;5066589;28;20179;-75
2022/01/26 09:11:43;;;;;;;13.73;6.53;;;8.10;1.00;;;;;;5068539;28;20815;-75
2022/01/26 09:14:11;;;;;;;13.47;6.83;;;8.20;1.00;;;;;;5060247;28;21035;-75
2022/01/26 09:16:37;;;;;;;11.97;7.17;;;8.30;1.00;;;;;;5064655;28;20441;-75
2022/01/26 09:19:13;;;;;;;11.40;6.10;;;8.30;1.00;;;;;;5064078;28;20423;-75
2022/01/26 09:21:43;;;;;;;14.83;6.50;;;8.30;1.00;;;;;;5049004;28;20412;-75
2022/01/26 09:24:20;;;;;;;10.07;6.40;;;8.20;1.00;;;;;;5069481;28;20570;-76
2022/01/26 09:27:02;;;;;;;10.87;6.70;;;8.10;1.00;;;;;;5064446;28;20421;-75
2022/01/26 09:29:28;;;;;;;11.87;6.57;;;7.90;1.00;;;;;;5058305;28;20892;-76
2022/01/26 09:31:55;;;;;;;10.20;5.33;;;7.90;1.00;;;;;;5060150;28;20529;-76
2022/01/26 09:34:28;;;;;;;10.40;5.07;;;7.50;1.00;;;;;;5067287;28;20460;-76
2022/01/26 09:36:54;;;;;;;12.67;6.23;;;7.50;1.00;;;;;;5064377;28;20748;-76
2022/01/26 09:39:49;;;;;;;8.07;5.40;;;7.50;1.00;;;;;;5067517;28;20430;-76
2022/01/26 09:42:19;;;;;;;9.00;5.00;;;7.40;1.00;;;;;;5069370;28;20420;-76
2022/01/26 09:44:44;;;;;;;10.00;5.00;;;7.30;1.00;;;;;;5064496;28;20413;-76
2022/01/26 09:47:10;;;;;;;9.30;5.00;;;7.40;1.00;;;;;;5074119;28;20424;-76
2022/01/26 09:49:37;;;;;;;9.00;4.83;;;7.50;1.00;;;;;;5074250;28;20194;-76
2022/01/26 09:52:06;;;;;;;7.77;4.50;;;7.50;1.00;;;;;;5071476;28;20186;-76
2022/01/26 09:54:32;;;;;;;6.53;4.60;;;7.50;1.00;;;;;;5063973;28;20982;-76
2022/01/26 09:57:03;;;;;;;12.70;5.27;;;;;;;;;;5074295;28;20413;-75
2022/01/26 09:59:31;;;;;;;13.23;5.07;;;7.20;1.00;;;;;;5072131;28;20461;-75
2022/01/26 10:01:58;;;;;;;8.47;4.60;;;7.20;1.00;;;;;;5055044;28;20961;-76
2022/01/26 10:04:28;;;;;;;5.67;3.70;;;7.10;1.00;;;;;;5073642;28;20784;-75
2022/01/26 10:07:08;;;;;;;10.20;5.53;;;7.30;1.00;;;;;;5072153;28;20409;-75
2022/01/26 10:17:49;;;;;;;7.90;5.20;;;6.80;1.00;;;;;;5055017;28;20576;-75
2022/01/26 10:20:48;;;;;;;6.23;4.47;;;6.80;1.00;;;;;;5041670;28;20417;-76
2022/01/26 10:23:17;;;;;;;10.00;5.63;;;6.70;1.00;;;;;;5059376;28;20496;-75
2022/01/26 10:25:47;;;;;;;6.97;4.27;;;6.70;1.00;;;;;;5056431;28;20437;-75
2022/01/26 10:28:14;;;;;;;7.30;4.30;;;6.80;1.00;;;;;;5054463;28;20940;-75
2022/01/26 10:30:45;;;;;;;8.80;4.77;;;6.70;1.00;;;;;;5053420;28;20402;-75
2022/01/26 10:33:11;;;;;;;7.70;4.33;;;6.70;1.00;;;;;;5040492;28;20418;-75
2022/01/26 10:35:37;;;;;;;8.20;4.27;;;6.90;1.00;;;;;;5053114;28;20479;-75
2022/01/26 10:38:04;;;;;;;10.63;6.37;;;6.90;1.00;;;;;;5054320;28;20422;-75
2022/01/26 10:40:31;;;;;;;23.40;5.03;;;7.10;1.00;;;;;;5066760;28;20942;-76
2022/01/26 10:43:13;;;;;;;9.27;3.90;;;7.20;1.00;;;;;;5089227;28;20916;-76
2022/01/26 10:46:05;;;;;;;8.03;4.27;;;7.00;1.00;;;;;;5073078;28;20421;-76
2022/01/26 10:48:43;;;;;;;8.07;5.13;;;6.90;1.00;;;;;;5066623;28;20832;-76
2022/01/26 10:54:35;;;;;;;6.83;4.70;;;6.80;1.00;;;;;;5010464;28;20455;-76
2022/01/26 10:57:02;;;;;;;7.43;4.90;;;6.70;1.00;;;;;;5010284;28;20432;-75
2022/01/26 10:59:27;;;;;;;7.33;5.27;;;6.70;1.00;;;;;;5008901;28;20506;-77
2022/01/26 11:01:54;;;;;;;12.13;4.90;;;6.60;1.00;;;;;;5007879;28;20910;-77
2022/01/26 11:04:19;;;;;;;5.47;4.43;;;6.50;1.00;;;;;;5010249;28;20280;-76
2022/01/26 11:06:51;;;;;;;11.50;4.00;;;6.80;1.00;;;;;;5011037;28;20510;-76
2022/01/26 11:09:20;;;;;;;11.90;4.90;;;6.60;1.00;;;;;;5005339;28;20185;-76
2022/01/26 11:11:47;;;;;;;10.43;4.67;;;6.50;1.00;;;;;;5010893;28;20450;-77
2022/01/26 11:14:22;;;;;;;12.90;5.53;;;6.50;1.00;;;;;;5005204;28;20523;-75
2022/01/26 11:16:49;;;;;;;8.13;5.20;;;6.40;1.00;;;;;;5010224;28;20454;-75
2022/01/26 11:19:15;;;;;;;8.10;5.10;;;6.60;1.00;;;;;;5010779;28;20419;-75
2022/01/26 11:21:40;;;;;;;11.97;4.80;;;6.40;1.00;;;;;;5010767;28;20411;-75
2022/01/26 11:24:10;;;;;;;10.73;5.07;;;6.30;1.00;;;;;;5010269;28;20943;-75
2022/01/26 11:26:38;;;;;;;6.13;5.10;;;6.50;1.00;;;;;;4985818;28;20737;-75
2022/01/26 11:29:14;;;;;;;8.00;4.77;;;6.60;1.00;;;;;;5017611;28;20430;-74
2022/01/26 11:31:41;;;;;;;6.57;4.27;;;6.70;1.00;;;;;;5050075;28;20410;-77
2022/01/26 11:34:09;;;;;;;10.40;4.37;;;6.90;1.00;;;;;;5070118;28;20970;-76
2022/01/26 11:36:35;;;;;;;9.10;4.27;;;;;;;;;;5072806;28;20409;-77
2022/01/26 11:47:32;;;;;;;7.47;5.13;;;7.20;1.00;;;;;;5053491;28;20540;-76
2022/01/26 11:50:08;;;;;;;6.57;4.27;;;7.00;1.00;;;;;;5053715;28;20771;-76
2022/01/26 11:52:38;;;;;;;6.10;4.00;;;6.90;1.00;;;;;;5063761;28;20460;-75
2022/01/26 11:55:34;;;;;;;8.80;4.27;;;6.90;1.00;;;;;;5073375;28;21008;-76
2022/01/26 11:58:31;;;;;;;6.50;4.60;;;6.80;1.00;;;;;;5018053;28;20424;-76
2022/01/26 12:01:14;;;;;;;5.57;4.50;;;6.80;1.00;;;;;;5020395;28;20476;-76
2022/01/26 12:04:14;;;;;;;8.43;4.90;;;6.70;1.00;;;;;;5031288;28;20438;-75
2022/01/26 12:07:10;;;;;;;7.63;3.67;;;6.60;1.00;;;;;;4920352;29;20578;-75
2022/01/26 12:09:39;;;;;;;6.83;4.67;;;6.90;1.00;;;;;;4916450;29;20440;-76
2022/01/26 12:12:06;;;;;;;4.03;3.33;;;6.80;1.00;;;;;;4933968;29;20414;-75
2022/01/26 12:15:19;;;;;;;6.17;3.77;;;6.70;1.00;;;;;;4918699;29;21009;-76
2022/01/26 12:18:27;;;;;;;8.00;4.20;;;6.60;1.00;;;;;;4914696;29;20535;-76
2022/01/26 12:35:56;;;;;;;5.70;4.03;;;6.30;1.00;;;;;;4889655;29;20508;-75
2022/01/26 12:38:45;;;;;;;7.50;4.13;;;6.40;1.00;;;;;;4898707;29;20413;-75
2022/01/26 12:41:24;;;;;;;7.13;4.10;;;6.40;1.00;;;;;;4899367;29;20429;-76
2022/01/26 12:43:55;;;;;;;6.70;3.70;;;6.90;1.00;;;;;;4970518;28;20443;-75
2022/01/26 12:46:39;;;;;;;4.83;4.00;;;6.80;1.00;;;;;;4978387;28;20516;-75
2022/01/26 12:49:10;;;;;;;11.50;4.30;;;6.70;1.00;;;;;;4979751;28;20424;-76
2022/01/26 12:51:44;;;;;;;5.80;3.20;;;6.50;1.00;;;;;;4983130;28;20508;-76
2022/01/26 12:54:11;;;;;;;3.60;3.23;;;6.40;1.00;;;;;;4985610;28;20487;-75
2022/01/26 12:56:37;;;;;;;6.10;3.77;;;6.40;1.00;;;;;;4987909;28;20896;-75
2022/01/26 12:59:05;;;;;;;5.60;4.30;;;6.20;1.00;;;;;;4988948;28;20413;-75
2022/01/26 13:01:31;;;;;;;4.37;3.57;;;6.20;1.00;;;;;;4975345;28;20412;-75
2022/01/26 13:04:11;;;;;;;8.17;4.07;;;6.10;1.00;;;;;;4984094;28;20919;-75
2022/01/26 13:06:51;;;;;;;7.30;4.30;;;6.00;1.00;;;;;;5060914;28;20418;-75
2022/01/26 13:09:18;;;;;;;7.17;3.43;;;5.90;1.00;;;;;;5056933;28;20421;-75
2022/01/26 13:11:51;;;;;;;3.17;2.87;;;5.90;1.00;;;;;;5076905;28;20427;-75
2022/01/26 13:14:55;;;;;;;5.00;3.40;;;5.90;1.00;;;;;;5074916;28;20464;-75
2022/01/26 13:18:14;;;;;;;6.20;3.87;;;5.80;1.00;;;;;;5073575;28;20475;-75
2022/01/26 13:21:07;;;;;;;8.07;4.00;;;5.70;1.00;;;;;;5046665;28;20411;-74
2022/01/26 13:23:50;;;;;;;6.10;4.03;;;5.70;1.00;;;;;;5042769;28;20440;-75
2022/01/26 13:26:38;;;;;;;6.80;3.20;;;5.60;1.00;;;;;;5058788;28;20421;-75
2022/01/26 13:50:09;;;;;;;16.90;6.30;;;5.10;1.00;;;;;;5012414;28;20420;-75
2022/01/26 13:56:06;;;;;;;11.30;5.60;;;5.10;1.00;;;;;;4991778;28;20433;-75
2022/01/26 14:01:25;;;;;;;21.93;7.77;;;4.90;1.00;;;;;;4989724;28;20453;-75
2022/01/26 14:03:55;;;;;;;15.13;5.50;;;4.80;1.00;;;;;;4992513;28;20840;-75
2022/01/26 14:06:21;;;;;;;5.77;4.53;;;4.70;1.00;;;;;;4992128;28;20413;-75
2022/01/26 14:08:47;;;;;;;15.07;6.20;;;4.70;1.00;;;;;;5014219;28;20414;-76
2022/01/26 14:11:12;;;;;;;14.87;5.50;;;4.80;1.00;;;;;;5034945;28;20191;-76
2022/01/26 14:13:38;;;;;;;17.50;6.87;;;4.90;1.00;;;;;;5051565;28;20203;-76
2022/01/26 14:16:05;;;;;;;17.20;6.93;;;4.80;1.00;;;;;;5046832;28;20693;-76
2022/01/26 14:18:49;;;;;;;13.50;6.23;;;4.80;1.00;;;;;;5033570;28;20435;-75
2022/01/26 14:21:30;;;;;;;11.27;6.20;;;4.80;1.00;;;;;;5030972;28;20447;-74
2022/01/26 14:24:09;;;;;;;11.07;6.20;;;;;;;;;;5029839;28;20446;-73
2022/01/26 14:26:35;;;;;;;16.63;6.63;;;4.70;1.00;;;;;;5034722;28;20410;-74
2022/01/26 14:29:02;;;;;;;14.67;6.40;;;4.70;1.00;;;;;;5051230;28;20425;-74
2022/01/26 14:31:50;;;;;;;19.97;6.50;;;;;;;;;;5052004;28;20183;-75
2022/01/26 15:29:55;;;;;;;15.90;6.20;;;4.20;1.00;;;;;;5073107;28;20409;-75
2022/01/26 15:31:41;;;;;;;19.70;7.50;;;4.20;1.00;;;;;;5071666;28;20486;-75
2022/01/26 15:44:25;;;;;;;12.40;5.70;;;4.30;1.00;;;;;;5069468;28;20421;-75
2022/01/26 15:57:53;;;;;;;13.53;5.87;;;4.40;1.00;;;;;;5063684;28;20432;-75
2022/01/26 17:43:17;;;;;;;9.43;5.70;;;3.80;1.00;;;;;;4973554;28;20182;-76
2022/01/26 18:25:52;;;;;;;19.50;6.70;;;3.60;1.00;;;;;;5022377;28;20271;-76
2022/01/26 18:32:47;;;;;;;19.60;7.97;;;3.60;1.00;;;;;;4991662;28;20176;-74
2022/01/26 18:49:13;;;;;;;12.35;7.25;;;3.60;1.00;;;;;;4953616;29;20235;-76
2022/01/26 18:51:48;;;;;;;13.95;7.20;;;3.60;1.00;;;;;;4952272;29;20179;-76
2022/01/26 18:54:14;;;;;;;14.73;7.38;;;3.60;1.00;;;;;;4952820;28;20226;-76
2022/01/26 18:56:41;;;;;;;16.63;7.75;;;3.60;1.00;;;;;;4952271;29;20337;-78
2022/01/26 18:59:08;;;;;;;16.58;8.50;;;3.70;1.00;;;;;;4952720;29;20634;-76
2022/01/26 19:01:34;;;;;;;12.15;6.78;;;3.70;1.00;;;;;;4940186;28;20250;-75
2022/01/26 19:04:00;;;;;;;12.75;6.82;;;3.60;1.00;;;;;;4933825;29;20207;-75
2022/01/26 19:06:26;;;;;;;16.33;7.30;;;3.60;1.00;;;;;;4964856;28;20711;-76
2022/01/26 19:08:51;;;;;;;18.17;6.80;;;3.60;1.00;;;;;;5010190;28;20458;-75
2022/01/26 19:11:20;;;;;;;21.83;7.80;;;3.60;1.00;;;;;;5011094;28;20185;-76
2022/01/26 19:13:47;;;;;;;11.40;5.78;;;3.60;1.00;;;;;;5010719;28;20706;-75
2022/01/26 19:19:29;;;;;;;11.90;6.35;;;3.50;1.00;;;;;;5002764;28;20181;-76
2022/01/26 19:22:06;;;;;;;18.15;8.05;;;3.50;1.00;;;;;;5061030;28;20199;-76
2022/01/26 19:28:00;;;;;;;19.00;9.00;;;3.60;1.00;;;;;;5050227;28;20171;-76
2022/01/26 19:32:51;;;;;;;18.33;7.95;;;3.60;1.00;;;;;;5061688;28;20420;-74
2022/01/26 19:52:08;;;;;;;14.23;6.88;;;3.40;1.00;;;;;;5066020;28;20660;-75
2022/01/26 19:54:28;;;;;;;14.82;6.97;;;3.40;1.00;;;;;;5062370;28;20214;-75
2022/01/26 19:56:54;;;;;;;18.50;7.33;;;3.30;1.00;;;;;;5067922;28;20174;-75
2022/01/26 19:59:20;;;;;;;14.50;7.17;;;3.40;1.00;;;;;;5071129;28;20171;-75
2022/01/26 20:01:45;;;;;;;12.50;6.73;;;3.30;1.00;;;;;;5055840;28;20176;-75
2022/01/26 20:04:11;;;;;;;12.20;7.03;;;3.30;1.00;;;;;;5064378;28;20681;-75
2022/01/26 20:06:37;;;;;;;11.90;6.57;;;3.30;1.00;;;;;;5063919;28;20175;-75
2022/01/26 20:11:39;;;;;;;22.00;7.20;;;3.30;1.00;;;;;;5076588;28;20646;-75